createdAt,value
2024-04-07T00:00:02.942Z,18.6
2024-04-07T00:15:00.437Z,18.4
2024-04-07T00:30:05.585Z,17.5
2024-04-07T00:45:00.296Z,18.7
2024-04-07T01:00:00.394Z,18.3
2024-04-07T01:15:01.371Z,18.5
2024-04-07T01:30:04.337Z,18.8
2024-04-07T01:45:00.654Z,18.5
2024-04-07T02:00:00.796Z,18.2
2024-04-07T02:15:00.668Z,18.9
2024-04-07T02:30:00.500Z,18.9
2024-04-07T02:45:00.610Z,18.4
2024-04-07T03:00:00.660Z,17.6
2024-04-07T03:15:00.574Z,18.8
2024-04-07T03:30:00.965Z,19.1
2024-04-07T03:45:00.490Z,18.4
2024-04-07T04:00:00.734Z,18.5
2024-04-07T04:15:00.775Z,18.2
2024-04-07T04:30:00.657Z,17.7
2024-04-07T04:45:00.474Z,17.4
2024-04-07T05:00:01.901Z,17
2024-04-07T05:15:00.358Z,17
2024-04-07T05:30:00.559Z,16.7
2024-04-07T05:45:00.335Z,16.6
2024-04-07T06:00:00.441Z,16.5
2024-04-07T06:15:00.366Z,16.5
2024-04-07T06:30:00.937Z,16.7
2024-04-07T06:45:00.742Z,16.5
2024-04-07T07:00:00.700Z,16.5
2024-04-07T07:15:00.357Z,16.8
2024-04-07T07:30:00.488Z,17
2024-04-07T07:45:00.545Z,17.5
2024-04-07T08:00:09.539Z,18.1
2024-04-07T08:15:04.234Z,18.3
2024-04-07T08:30:00.438Z,18.4
2024-04-07T08:45:00.332Z,18.3
2024-04-07T09:00:00.534Z,18.5
2024-04-07T09:15:00.292Z,18.8
2024-04-07T09:30:01.109Z,18.9
2024-04-07T09:45:00.411Z,19.3
2024-04-07T10:00:00.564Z,19.6
2024-04-07T10:15:00.497Z,19.5
2024-04-07T10:30:00.546Z,19.5
2024-04-07T10:45:00.609Z,20.2
2024-04-07T11:00:00.657Z,20.3
2024-04-07T11:15:00.468Z,20.5
2024-04-07T11:30:00.331Z,21
2024-04-07T11:45:01.711Z,21.3
2024-04-07T12:00:00.359Z,21.6
2024-04-07T12:15:00.515Z,21.9
2024-04-07T12:30:00.970Z,22
2024-04-07T12:45:00.694Z,22.4
2024-04-07T13:00:00.561Z,22.5
2024-04-07T13:15:06.468Z,22.7
2024-04-07T13:30:00.315Z,22.6
2024-04-07T13:45:00.311Z,22.5
2024-04-07T14:00:00.493Z,22.5
2024-04-07T14:15:00.408Z,22.4
2024-04-07T14:30:01.501Z,22.5
2024-04-07T14:45:00.347Z,22.3
2024-04-07T15:00:00.382Z,22.3
2024-04-07T15:15:00.650Z,22
2024-04-07T15:30:00.855Z,22
2024-04-07T15:45:00.322Z,21.7
2024-04-07T16:00:00.842Z,21.5
2024-04-07T16:15:00.461Z,21.5
2024-04-07T16:30:01.439Z,21.2
2024-04-07T16:45:00.344Z,20.8
2024-04-07T17:00:01.582Z,20.7
2024-04-07T17:15:00.344Z,20.2
2024-04-07T17:30:00.802Z,20.2
2024-04-07T17:45:00.422Z,19.6
2024-04-07T18:00:00.427Z,19.5
2024-04-07T18:15:00.410Z,19.5
2024-04-07T18:30:00.994Z,19.3
2024-04-07T18:45:01.643Z,19.1
2024-04-07T19:00:02.420Z,18.2
2024-04-07T19:15:00.750Z,18.3
2024-04-07T19:30:00.852Z,18.1
2024-04-07T19:45:00.313Z,17.8
2024-04-07T20:00:00.544Z,17.7
2024-04-07T20:15:00.554Z,17.5
2024-04-07T20:30:00.473Z,17.3
2024-04-07T20:45:00.253Z,16.9
2024-04-07T22:00:00.967Z,15.6
2024-04-07T22:15:01.043Z,15.2
2024-04-07T22:30:00.396Z,15
2024-04-07T22:45:00.227Z,15
2024-04-07T23:00:00.717Z,14.9
2024-04-07T23:15:00.252Z,14.7
2024-04-07T23:30:01.902Z,14.5
2024-04-07T23:45:00.477Z,14.1
